createdAt,value
2023-03-15T00:01:20.900Z,100388.88
2023-03-15T00:03:51.410Z,100384.78
2023-03-15T00:06:21.462Z,100385.16
2023-03-15T00:08:52.485Z,100391.56
2023-03-15T00:11:22.414Z,100388.75
2023-03-15T00:13:54.840Z,100382.34
2023-03-15T00:16:27.645Z,100397.97
2023-03-15T00:18:58.769Z,100398.78
2023-03-15T00:21:30.383Z,100395.19
2023-03-15T00:24:00.246Z,100401.13
2023-03-15T00:26:31.002Z,100399.53
2023-03-15T00:29:02.500Z,100393.44
2023-03-15T00:31:32.229Z,100401.38
2023-03-15T00:34:03.204Z,100397.78
2023-03-15T00:36:35.390Z,100400.13
2023-03-15T00:39:06.064Z,100390.09
2023-03-15T00:41:36.482Z,100388.00
2023-03-15T00:44:08.453Z,100399.56
2023-03-15T00:46:38.922Z,100388.34
2023-03-15T00:49:08.668Z,100398.72
2023-03-15T00:51:39.135Z,100393.13
2023-03-15T00:54:09.668Z,100393.94
2023-03-15T00:56:40.249Z,100391.16
2023-03-15T00:59:12.457Z,100384.28
2023-03-15T01:01:45.107Z,100386.25
2023-03-15T01:04:15.557Z,100397.81
2023-03-15T01:06:45.548Z,100397.34
2023-03-15T01:09:15.921Z,100419.28
2023-03-15T01:11:45.720Z,100407.16
2023-03-15T01:14:19.185Z,100425.00
2023-03-15T01:16:49.586Z,100429.31
2023-03-15T01:19:19.696Z,100419.28
2023-03-15T01:21:50.012Z,100419.66
2023-03-15T01:24:20.060Z,100428.03
2023-03-15T01:26:50.136Z,100424.44
2023-03-15T01:29:21.560Z,100435.28
2023-03-15T01:31:52.074Z,100422.91
2023-03-15T01:34:22.079Z,100414.16
2023-03-15T01:36:55.374Z,100410.19
2023-03-15T01:39:25.243Z,100399.81
2023-03-15T01:41:55.410Z,100397.84
2023-03-15T01:44:52.839Z,100397.00
2023-03-15T01:47:26.262Z,100401.44
2023-03-15T01:50:04.780Z,100407.88
2023-03-15T01:52:40.331Z,100417.91
2023-03-15T01:55:15.468Z,100431.88
2023-03-15T01:57:52.117Z,100429.88
2023-03-15T02:00:25.861Z,100435.84
2023-03-15T02:03:01.272Z,100437.00
2023-03-15T02:05:36.627Z,100437.38
2023-03-15T02:08:12.083Z,100437.72
2023-03-15T02:10:49.341Z,100444.47
2023-03-15T02:13:24.714Z,100439.25
2023-03-15T02:15:58.694Z,100439.25
2023-03-15T02:18:29.369Z,100438.44
2023-03-15T02:21:11.105Z,100442.41
2023-03-15T02:23:41.332Z,100443.91
2023-03-15T02:26:25.770Z,100446.69
2023-03-15T02:28:58.687Z,100459.06
2023-03-15T02:31:29.900Z,100462.19
2023-03-15T02:33:59.747Z,100465.38
2023-03-15T02:36:32.402Z,100471.28
2023-03-15T02:39:03.932Z,100471.19
2023-03-15T02:41:39.558Z,100477.50
2023-03-15T02:44:18.333Z,100469.78
2023-03-15T02:46:53.217Z,100468.53
2023-03-15T02:49:30.234Z,100459.28
2023-03-15T02:52:00.088Z,100485.31
2023-03-15T02:54:30.380Z,100485.31
2023-03-15T02:57:00.766Z,100478.88
2023-03-15T02:59:32.842Z,100480.88
2023-03-15T03:02:03.439Z,100488.44
2023-03-15T03:04:33.190Z,100492.06
2023-03-15T03:07:03.680Z,100510.47
2023-03-15T03:09:34.246Z,100534.81
2023-03-15T03:12:04.672Z,100545.66
2023-03-15T03:14:37.154Z,100547.63
2023-03-15T03:17:07.598Z,100548.00
2023-03-15T03:19:37.968Z,100558.34
2023-03-15T03:22:08.443Z,100569.09
2023-03-15T03:24:38.898Z,100576.66
2023-03-15T03:27:09.432Z,100576.66
2023-03-15T03:29:41.746Z,100558.34
2023-03-15T03:32:12.569Z,100552.63
2023-03-15T03:34:42.484Z,100545.88
2023-03-15T03:37:13.079Z,100547.03
2023-03-15T03:39:43.010Z,100559.41
2023-03-15T03:42:13.619Z,100556.16
2023-03-15T03:44:45.990Z,100548.44
2023-03-15T03:47:16.479Z,100549.97
2023-03-15T03:49:46.669Z,100548.34
2023-03-15T03:52:16.893Z,100542.22
2023-03-15T03:54:46.730Z,100553.41
2023-03-15T03:57:16.959Z,100551.78
2023-03-15T03:59:49.216Z,100550.97
2023-03-15T04:02:19.722Z,100558.53
2023-03-15T04:04:50.683Z,100561.69
2023-03-15T04:07:21.047Z,100565.97
2023-03-15T04:09:51.561Z,100581.47
2023-03-15T04:12:21.300Z,100576.22
2023-03-15T04:14:53.203Z,100570.16
2023-03-15T04:17:23.694Z,100561.16
2023-03-15T04:19:54.226Z,100557.09
2023-03-15T04:22:24.729Z,100561.06
2023-03-15T04:24:54.856Z,100556.63
2023-03-15T04:27:25.212Z,100563.50
2023-03-15T04:29:57.418Z,100577.47
2023-03-15T04:32:28.013Z,100571.88
2023-03-15T04:34:58.420Z,100576.66
2023-03-15T04:37:28.644Z,100592.59
2023-03-15T04:39:58.907Z,100602.97
2023-03-15T04:42:29.296Z,100611.00
2023-03-15T04:45:01.663Z,100611.50
2023-03-15T04:47:31.625Z,100608.34
2023-03-15T04:50:02.013Z,100621.50
2023-03-15T04:52:32.138Z,100625.59
2023-03-15T04:55:01.874Z,100629.22
2023-03-15T04:57:32.137Z,100623.28
2023-03-15T05:00:04.832Z,100628.50
2023-03-15T05:02:36.291Z,100627.34
2023-03-15T05:05:07.030Z,100628.19
2023-03-15T05:07:37.897Z,100624.22
2023-03-15T05:10:09.998Z,100623.41
2023-03-15T05:12:40.142Z,100625.41
2023-03-15T05:15:13.770Z,100628.50
2023-03-15T05:17:46.797Z,100630.50
2023-03-15T05:20:18.518Z,100628.50
2023-03-15T05:22:48.806Z,100630.50
2023-03-15T05:25:19.452Z,100630.84
2023-03-15T05:27:49.782Z,100630.84
2023-03-15T05:30:22.575Z,100632.50
2023-03-15T05:32:52.712Z,100637.72
2023-03-15T05:35:27.086Z,100635.75
2023-03-15T05:37:58.714Z,100636.22
2023-03-15T05:40:30.382Z,100635.88
2023-03-15T05:43:00.635Z,100650.31
2023-03-15T05:45:32.616Z,100667.59
2023-03-15T05:48:02.918Z,100658.38
2023-03-15T05:50:33.297Z,100660.84
2023-03-15T05:53:03.682Z,100668.41
2023-03-15T05:55:33.924Z,100663.63
2023-03-15T05:58:03.677Z,100660.84
2023-03-15T06:00:36.162Z,100662.81
2023-03-15T06:03:06.564Z,100661.19
2023-03-15T06:05:36.998Z,100654.28
2023-03-15T06:08:07.676Z,100658.72
2023-03-15T06:10:38.172Z,100649.16
2023-03-15T06:13:08.383Z,100655.75
2023-03-15T06:15:40.752Z,100658.78
2023-03-15T06:18:11.333Z,100667.91
2023-03-15T06:20:42.162Z,100674.22
2023-03-15T06:23:13.132Z,100676.94
2023-03-15T06:25:43.358Z,100665.63
2023-03-15T06:28:13.709Z,100667.19
2023-03-15T06:30:45.447Z,100667.09
2023-03-15T06:33:15.574Z,100668.47
2023-03-15T06:35:47.188Z,100673.38
2023-03-15T06:38:17.606Z,100681.44
2023-03-15T06:40:47.724Z,100679.78
2023-03-15T06:43:19.915Z,100682.13
2023-03-15T06:45:53.849Z,100671.63
2023-03-15T06:48:24.640Z,100668.72
2023-03-15T06:50:55.029Z,100670.69
2023-03-15T06:53:25.134Z,100675.81
2023-03-15T06:55:55.346Z,100685.72
2023-03-15T06:58:25.648Z,100698.44
2023-03-15T07:00:57.642Z,100708.00
2023-03-15T07:03:27.636Z,100705.56
2023-03-15T07:05:58.013Z,100703.44
2023-03-15T07:08:28.200Z,100698.19
2023-03-15T07:10:59.735Z,100696.22
2023-03-15T07:13:30.051Z,100699.38
2023-03-15T07:16:02.408Z,100700.84
2023-03-15T07:18:33.894Z,100699.56
2023-03-15T07:21:07.345Z,100695.97
2023-03-15T07:23:38.192Z,100692.69
2023-03-15T07:26:08.612Z,100694.22
2023-03-15T07:28:39.126Z,100698.97
2023-03-15T07:31:12.379Z,100697.00
2023-03-15T07:33:42.842Z,100699.81
2023-03-15T07:36:12.769Z,100699.44
2023-03-15T07:38:44.241Z,100695.50
2023-03-15T07:41:13.980Z,100692.69
2023-03-15T07:43:44.515Z,100692.22
2023-03-15T07:46:16.878Z,100681.50
2023-03-15T07:48:48.703Z,100680.34
2023-03-15T07:51:19.126Z,100685.56
2023-03-15T07:53:49.603Z,100695.25
2023-03-15T07:56:19.937Z,100706.59
2023-03-15T07:58:50.357Z,100693.41
2023-03-15T08:01:22.657Z,100700.28
2023-03-15T08:03:53.551Z,100701.13
2023-03-15T08:06:24.821Z,100694.38
2023-03-15T08:08:55.037Z,100695.97
2023-03-15T08:11:25.472Z,100700.06
2023-03-15T08:13:55.789Z,100689.34
2023-03-15T08:16:27.785Z,100692.59
2023-03-15T08:18:58.042Z,100684.69
2023-03-15T08:21:28.569Z,100679.56
2023-03-15T08:23:58.989Z,100694.84
2023-03-15T08:26:29.510Z,100676.06
2023-03-15T08:28:59.125Z,100679.31
2023-03-15T08:31:30.795Z,100668.25
2023-03-15T08:34:01.239Z,100663.25
2023-03-15T08:36:32.972Z,100672.25
2023-03-15T08:39:05.808Z,100674.81
2023-03-15T08:41:36.485Z,100678.91
2023-03-15T08:44:06.896Z,100676.22
2023-03-15T08:46:39.032Z,100673.09
2023-03-15T08:49:09.511Z,100671.44
2023-03-15T08:51:39.963Z,100682.97
2023-03-15T08:54:10.236Z,100689.78
2023-03-15T08:56:40.601Z,100696.19
2023-03-15T08:59:12.826Z,100697.34
2023-03-15T09:01:47.313Z,100693.38
2023-03-15T09:04:17.639Z,100687.41
2023-03-15T09:06:48.006Z,100694.31
2023-03-15T09:09:18.932Z,100688.84
2023-03-15T09:11:48.915Z,100695.34
2023-03-15T09:14:19.269Z,100694.66
2023-03-15T09:16:51.481Z,100686.00
2023-03-15T09:19:21.650Z,100693.38
2023-03-15T09:21:52.843Z,100693.13
2023-03-15T09:24:23.196Z,100687.75
2023-03-15T09:26:52.939Z,100685.53
2023-03-15T09:29:22.982Z,100692.53
2023-03-15T09:31:55.446Z,100694.72
2023-03-15T09:34:27.562Z,100699.63
2023-03-15T09:37:00.703Z,100706.22
2023-03-15T09:39:30.669Z,100704.69
2023-03-15T09:42:02.859Z,100701.50
2023-03-15T09:44:48.500Z,100692.75
2023-03-15T09:47:37.382Z,100687.97
2023-03-15T09:50:18.818Z,100687.97
2023-03-15T09:52:54.368Z,100684.81
2023-03-15T09:55:27.923Z,100687.63
2023-03-15T09:58:03.297Z,100688.91
2023-03-15T10:00:42.501Z,100677.41
2023-03-15T10:03:25.680Z,100680.47
2023-03-15T10:06:01.551Z,100671.41
2023-03-15T10:08:32.056Z,100674.88
2023-03-15T10:11:15.704Z,100672.75
2023-03-15T10:14:12.102Z,100672.25
2023-03-15T10:16:45.730Z,100669.16
2023-03-15T10:19:27.872Z,100671.03
2023-03-15T10:22:05.131Z,100669.59
2023-03-15T10:24:46.702Z,100658.56
2023-03-15T10:27:23.969Z,100664.03
2023-03-15T10:29:58.777Z,100660.94
2023-03-15T10:32:37.331Z,100663.13
2023-03-15T10:35:19.267Z,100655.59
2023-03-15T10:37:49.862Z,100658.50
2023-03-15T10:40:45.829Z,100649.44
2023-03-15T10:43:21.477Z,100654.31
2023-03-15T10:46:03.178Z,100650.81
2023-03-15T10:48:36.054Z,100653.22
2023-03-15T10:51:26.325Z,100648.88
2023-03-15T10:54:01.506Z,100652.16
2023-03-15T10:56:37.958Z,100650.59
2023-03-15T10:59:20.302Z,100656.31
2023-03-15T11:01:55.322Z,100656.44
2023-03-15T11:04:29.545Z,100656.53
2023-03-15T11:07:08.215Z,100659.03
2023-03-15T11:09:46.081Z,100653.16
2023-03-15T11:12:25.743Z,100650.06
2023-03-15T11:15:01.351Z,100648.16
2023-03-15T11:17:37.164Z,100651.03
2023-03-15T11:20:26.927Z,100660.38
2023-03-15T11:23:00.477Z,100654.00
2023-03-15T11:25:34.154Z,100660.53
2023-03-15T11:28:04.979Z,100662.63
2023-03-15T11:30:35.464Z,100663.06
2023-03-15T11:33:11.858Z,100657.09
2023-03-15T11:35:49.056Z,100662.34
2023-03-15T11:38:33.665Z,100658.34
2023-03-15T11:41:18.111Z,100651.53
2023-03-15T11:44:00.861Z,100660.44
2023-03-15T11:46:36.710Z,100658.41
2023-03-15T11:49:19.723Z,100646.00
2023-03-15T11:51:50.193Z,100655.25
2023-03-15T11:54:24.586Z,100660.50
2023-03-15T11:56:58.024Z,100662.13
2023-03-15T11:59:33.145Z,100668.94
2023-03-15T12:02:50.562Z,100677.38
2023-03-15T12:05:46.796Z,100678.19
2023-03-15T12:08:27.374Z,100677.84
2023-03-15T12:11:00.917Z,100670.66
2023-03-15T12:13:34.166Z,100665.47
2023-03-15T12:16:08.342Z,100673.16
2023-03-15T12:18:48.309Z,100676.91
2023-03-15T12:21:25.274Z,100684.97
2023-03-15T12:24:06.698Z,100680.97
2023-03-15T12:27:05.253Z,100682.16
2023-03-15T12:29:38.554Z,100681.69
2023-03-15T12:32:18.636Z,100677.25
2023-03-15T12:34:53.253Z,100682.06
2023-03-15T12:37:27.758Z,100686.03
2023-03-15T12:40:26.209Z,100680.78
2023-03-15T12:43:05.538Z,100692.44
2023-03-15T12:45:48.813Z,100683.16
2023-03-15T12:48:27.484Z,100685.50
2023-03-15T12:51:35.703Z,100685.44
2023-03-15T12:54:07.330Z,100687.78
2023-03-15T12:56:51.777Z,100684.19
2023-03-15T12:59:58.509Z,100693.00
2023-03-15T13:02:43.878Z,100703.78
2023-03-15T13:05:23.491Z,100696.53
2023-03-15T13:08:09.503Z,100692.47
2023-03-15T13:11:12.581Z,100694.34
2023-03-15T13:14:06.518Z,100689.84
2023-03-15T13:16:46.687Z,100698.19
2023-03-15T13:19:25.417Z,100688.13
2023-03-15T13:22:09.844Z,100694.91
2023-03-15T13:24:52.816Z,100693.28
2023-03-15T13:27:46.035Z,100696.09
2023-03-15T13:30:37.400Z,100690.03
2023-03-15T13:33:24.573Z,100691.56
2023-03-15T13:36:01.678Z,100695.56
2023-03-15T13:38:34.867Z,100688.31
2023-03-15T13:41:07.677Z,100691.50
2023-03-15T13:43:43.030Z,100697.09
2023-03-15T13:46:13.621Z,100706.72
2023-03-15T13:48:49.029Z,100713.97
2023-03-15T13:51:26.125Z,100709.97
2023-03-15T13:54:02.526Z,100701.94
2023-03-15T13:56:48.844Z,100713.97
2023-03-15T13:59:21.012Z,100708.28
2023-03-15T14:01:54.922Z,100709.44
2023-03-15T14:04:32.557Z,100702.19
2023-03-15T14:07:32.137Z,100710.63
2023-03-15T14:10:25.816Z,100711.78
2023-03-15T14:12:58.381Z,100714.97
2023-03-15T14:15:45.184Z,100714.97
2023-03-15T14:18:24.639Z,100715.34
2023-03-15T14:21:03.040Z,100732.22
2023-03-15T14:23:34.523Z,100728.56
2023-03-15T14:26:15.335Z,100711.34
2023-03-15T14:28:53.739Z,100716.97
2023-03-15T14:31:28.335Z,100716.97
2023-03-15T14:34:07.787Z,100706.56
2023-03-15T14:36:46.724Z,100728.19
2023-03-15T14:39:27.281Z,100726.13
2023-03-15T14:41:58.256Z,100730.47
2023-03-15T14:44:30.564Z,100737.28
2023-03-15T14:47:02.537Z,100732.84
2023-03-15T14:49:32.949Z,100738.00
2023-03-15T14:52:08.722Z,100742.38
2023-03-15T14:54:39.148Z,100743.41
2023-03-15T14:57:10.789Z,100745.75
2023-03-15T14:59:42.021Z,100741.22
2023-03-15T15:02:20.174Z,100748.41
2023-03-15T15:04:50.952Z,100749.09
2023-03-15T15:07:24.110Z,100754.25
2023-03-15T15:09:54.908Z,100762.22
2023-03-15T15:12:25.730Z,100764.94
2023-03-15T15:14:57.353Z,100770.09
2023-03-15T15:17:28.637Z,100779.25
2023-03-15T15:19:58.624Z,100775.16
2023-03-15T15:22:31.232Z,100774.72
2023-03-15T15:25:01.430Z,100778.69
2023-03-15T15:27:32.154Z,100778.69
2023-03-15T15:30:02.642Z,100777.88
2023-03-15T15:32:34.332Z,100791.91
2023-03-15T15:35:05.524Z,100788.63
2023-03-15T15:37:38.315Z,100793.00
2023-03-15T15:40:18.899Z,100784.09
2023-03-15T15:42:49.657Z,100797.69
2023-03-15T15:45:21.585Z,100793.25
2023-03-15T15:47:52.218Z,100793.25
2023-03-15T15:50:24.881Z,100795.22
2023-03-15T15:52:58.936Z,100793.59
2023-03-15T15:55:34.902Z,100790.78
2023-03-15T15:58:10.846Z,100794.75
2023-03-15T16:00:41.490Z,100804.38
2023-03-15T16:03:17.373Z,100796.78
2023-03-15T16:05:47.584Z,100797.13
2023-03-15T16:08:26.676Z,100806.25
2023-03-15T16:10:56.723Z,100798.56
2023-03-15T16:13:27.409Z,100799.28
2023-03-15T16:15:58.336Z,100801.63
2023-03-15T16:18:29.140Z,100807.94
2023-03-15T16:20:59.761Z,100813.09
2023-03-15T16:23:32.064Z,100816.63
2023-03-15T16:26:02.071Z,100825.75
2023-03-15T16:28:33.418Z,100828.88
2023-03-15T16:31:03.531Z,100830.53
2023-03-15T16:33:35.098Z,100832.88
2023-03-15T16:36:06.302Z,100832.03
2023-03-15T16:38:39.577Z,100834.03
2023-03-15T16:41:13.784Z,100836.47
2023-03-15T16:43:46.248Z,100835.66
2023-03-15T16:46:19.260Z,100844.09
2023-03-15T16:48:49.872Z,100850.88
2023-03-15T16:51:20.788Z,100843.63
2023-03-15T16:53:57.560Z,100850.75
2023-03-15T16:56:38.262Z,100850.75
2023-03-15T16:59:14.310Z,100845.47
2023-03-15T17:01:44.960Z,100832.63
2023-03-15T17:04:16.460Z,100833.47
2023-03-15T17:06:48.594Z,100843.84
2023-03-15T17:09:25.402Z,100847.03
2023-03-15T17:11:56.354Z,100842.94
2023-03-15T17:14:35.095Z,100847.72
2023-03-15T17:17:05.754Z,100855.34
2023-03-15T17:19:37.621Z,100858.47
2023-03-15T17:22:10.355Z,100853.22
2023-03-15T17:24:43.211Z,100852.41
2023-03-15T17:27:23.361Z,100849.63
2023-03-15T17:29:53.315Z,100856.38
2023-03-15T17:32:24.059Z,100851.59
2023-03-15T17:34:59.294Z,100862.81
2023-03-15T17:37:35.486Z,100858.84
2023-03-15T17:40:20.148Z,100859.19
2023-03-15T17:42:51.874Z,100848.31
2023-03-15T17:45:25.324Z,100850.78
2023-03-15T17:47:55.910Z,100851.94
2023-03-15T17:50:27.978Z,100866.78
2023-03-15T17:53:01.983Z,100861.53
2023-03-15T17:55:35.529Z,100857.91
2023-03-15T17:58:11.905Z,100865.50
2023-03-15T18:00:44.069Z,100860.25
2023-03-15T18:03:17.166Z,100857.44
2023-03-15T18:05:48.585Z,100858.25
2023-03-15T18:08:21.692Z,100857.44
2023-03-15T18:10:55.385Z,100856.63
2023-03-15T18:13:27.321Z,100863.41
2023-03-15T18:15:58.052Z,100861.41
2023-03-15T18:18:28.985Z,100866.19
2023-03-15T18:20:59.916Z,100859.78
2023-03-15T18:23:30.349Z,100862.59
2023-03-15T18:26:05.205Z,100863.41
2023-03-15T18:28:36.009Z,100862.59
2023-03-15T18:31:06.955Z,100863.41
2023-03-15T18:33:38.092Z,100869.84
2023-03-15T18:36:09.394Z,100863.41
2023-03-15T18:38:40.262Z,100859.78
2023-03-15T18:41:20.706Z,100867.03
2023-03-15T18:43:52.701Z,100864.59
2023-03-15T18:46:25.734Z,100858.16
2023-03-15T18:48:56.910Z,100869.38
2023-03-15T18:51:28.555Z,100860.94
2023-03-15T18:53:59.496Z,100870.53
2023-03-15T18:56:34.635Z,100870.53
2023-03-15T18:59:05.433Z,100866.09
2023-03-15T19:01:36.073Z,100864.13
2023-03-15T19:04:06.824Z,100868.09
2023-03-15T19:06:38.015Z,100867.25
2023-03-15T19:09:08.956Z,100870.44
2023-03-15T19:11:42.299Z,100862.00
2023-03-15T19:14:14.566Z,100864.00
2023-03-15T19:16:45.383Z,100865.19
2023-03-15T19:19:16.058Z,100874.75
2023-03-15T19:21:46.116Z,100871.97
2023-03-15T19:24:16.481Z,100882.34
2023-03-15T19:26:49.079Z,100890.66
2023-03-15T19:29:19.549Z,100891.00
2023-03-15T19:31:50.323Z,100886.91
2023-03-15T19:34:21.456Z,100886.44
2023-03-15T19:36:52.169Z,100891.59
2023-03-15T19:39:22.693Z,100889.84
2023-03-15T19:41:55.351Z,100895.31
2023-03-15T19:44:26.064Z,100884.81
2023-03-15T19:46:57.336Z,100898.72
2023-03-15T19:49:27.846Z,100890.97
2023-03-15T19:51:57.928Z,100890.88
2023-03-15T19:54:31.389Z,100894.84
2023-03-15T19:57:04.047Z,100890.75
2023-03-15T19:59:40.348Z,100895.84
2023-03-15T20:02:13.068Z,100896.22
2023-03-15T20:04:43.978Z,100895.38
2023-03-15T20:07:15.062Z,100895.72
2023-03-15T20:09:45.857Z,100894.94
2023-03-15T20:12:18.113Z,100896.41
2023-03-15T20:14:48.649Z,100894.34
2023-03-15T20:17:20.918Z,100905.88
2023-03-15T20:19:50.696Z,100910.69
2023-03-15T20:22:21.193Z,100911.03
2023-03-15T20:24:51.715Z,100906.91
2023-03-15T20:27:25.821Z,100917.66
2023-03-15T20:29:58.380Z,100918.00
2023-03-15T20:32:29.146Z,100914.72
2023-03-15T20:35:00.634Z,100908.69
2023-03-15T20:37:36.581Z,100907.03
2023-03-15T20:40:09.454Z,100912.97
2023-03-15T20:42:44.920Z,100904.09
2023-03-15T20:45:18.565Z,100911.69
2023-03-15T20:47:49.364Z,100905.59
2023-03-15T20:50:21.625Z,100908.75
2023-03-15T20:52:52.579Z,100909.13
2023-03-15T20:55:22.543Z,100904.66
2023-03-15T20:57:55.051Z,100904.53
2023-03-15T21:00:27.777Z,100906.03
2023-03-15T21:02:58.110Z,100904.41
2023-03-15T21:05:28.470Z,100903.94
2023-03-15T21:07:58.910Z,100897.03
2023-03-15T21:10:28.901Z,100902.63
2023-03-15T21:13:09.884Z,100899.84
2023-03-15T21:15:50.076Z,100901.84
2023-03-15T21:18:24.724Z,100913.03
2023-03-15T21:21:05.784Z,100902.63
2023-03-15T21:23:40.807Z,100898.19
2023-03-15T21:26:17.528Z,100891.31
2023-03-15T21:28:51.184Z,100895.25
2023-03-15T21:31:23.455Z,100900.06
2023-03-15T21:33:55.919Z,100891.19
2023-03-15T21:36:28.229Z,100900.38
2023-03-15T21:39:00.812Z,100894.78
2023-03-15T21:41:34.652Z,100892.00
2023-03-15T21:44:07.930Z,100891.19
2023-03-15T21:46:39.690Z,100891.19
2023-03-15T21:49:13.154Z,100894.78
2023-03-15T21:51:47.616Z,100888.38
2023-03-15T21:54:19.225Z,100888.38
2023-03-15T21:56:49.891Z,100893.19
2023-03-15T21:59:28.424Z,100887.09
2023-03-15T22:01:59.165Z,100889.41
2023-03-15T22:04:29.815Z,100888.13
2023-03-15T22:07:09.034Z,100890.44
2023-03-15T22:09:41.759Z,100881.94
2023-03-15T22:12:15.143Z,100883.09
2023-03-15T22:14:56.810Z,100877.00
2023-03-15T22:17:35.009Z,100875.72
2023-03-15T22:20:08.479Z,100867.66
2023-03-15T22:22:39.017Z,100870.44
2023-03-15T22:25:10.681Z,100862.03
2023-03-15T22:27:42.166Z,100860.44
2023-03-15T22:30:18.223Z,100858.75
2023-03-15T22:32:48.736Z,100860.72
2023-03-15T22:35:20.019Z,100853.50
2023-03-15T22:37:56.853Z,100853.50
2023-03-15T22:40:29.638Z,100850.69
2023-03-15T22:43:00.437Z,100852.69
2023-03-15T22:45:32.599Z,100847.09
2023-03-15T22:48:03.154Z,100843.13
2023-03-15T22:50:33.248Z,100849.53
2023-03-15T22:53:03.352Z,100839.50
2023-03-15T22:55:33.292Z,100847.88
2023-03-15T22:58:04.070Z,100840.66
2023-03-15T23:00:36.304Z,100847.88
2023-03-15T23:03:06.848Z,100850.69
2023-03-15T23:05:37.703Z,100849.53
2023-03-15T23:08:08.803Z,100841.97
2023-03-15T23:10:38.898Z,100855.63
2023-03-15T23:13:09.374Z,100844.44
2023-03-15T23:15:42.035Z,100844.44
2023-03-15T23:18:14.195Z,100847.56
2023-03-15T23:20:44.847Z,100843.94
2023-03-15T23:23:15.028Z,100844.28
2023-03-15T23:25:47.639Z,100851.41
2023-03-15T23:28:19.754Z,100848.59
2023-03-15T23:30:51.301Z,100845.31
2023-03-15T23:33:21.494Z,100847.63
2023-03-15T23:35:53.351Z,100844.84
2023-03-15T23:38:23.780Z,100844.34
2023-03-15T23:40:57.595Z,100839.13
2023-03-15T23:43:28.289Z,100841.06
2023-03-15T23:46:03.984Z,100836.66
2023-03-15T23:48:37.631Z,100835.84
2023-03-15T23:51:09.637Z,100837.81
2023-03-15T23:53:42.878Z,100839.00
2023-03-15T23:56:13.246Z,100835.34
2023-03-15T23:58:43.480Z,100836.50
